Latest Weather Observations for Gatton

IDQ60801

Issued at 3:02 pm EST Monday 26 September 2016 (issued every 30 minutes, with the page automatically refreshed every 10 minutes)

About weather observations | Map of weather stations | Latest weather observations for QLD | Other Formats
Station Details ID: 040082 Name: UNIVERSITY OF QUEENSLAND GATTON Lat: -27.54 Lon: 152.34 Height: 89.0 m
Data from the previous 72 hours. | See also: Recent months at Gatton
Date/Time
EST
Temp
°C
App
Temp
°C
Dew
Point
°C
Rel
Hum
%
Delta-T
°C
Wind Press
QNH
hPa
Press
MSL
hPa
Rain since
9am
mm
Dir  Spd
km/h
Gust
km/h
Spd
kts
Gust
kts
26/03:00pm 25.4 21.5 7.1 31 9.6 W 17 32 9 17 - - 0.0
26/02:30pm 25.7 21.3 7.3 31 9.8 W 20 33 11 18 - - 0.0
26/02:00pm 25.0 20.6 6.7 31 9.6 W 19 26 10 14 - - 0.0
26/01:30pm 25.7 22.6 8.7 34 9.2 W 15 26 8 14 - - 0.0
26/01:00pm 24.6 20.5 6.4 31 9.4 W 17 24 9 13 - - 0.0
26/12:30pm 24.3 20.9 6.1 31 9.4 WSW 13 24 7 13 - - 0.0
26/12:00pm 24.2 20.5 7.8 35 8.7 WNW 17 28 9 15 - - 0.0
26/11:30am 23.6 19.7 7.3 35 8.5 W 17 28 9 15 - - 0.0
26/11:00am 23.3 19.9 7.8 37 8.2 W 15 22 8 12 - - 0.0
26/10:30am 22.9 19.6 8.2 39 7.8 W 15 26 8 14 - - 0.0
26/10:00am 21.9 18.9 9.1 44 6.9 WSW 15 24 8 13 - - 0.0
26/09:30am 21.1 18.3 10.0 49 6.0 WSW 15 24 8 13 - - 0.0
26/09:00am 20.7 18.6 11.1 54 5.3 WSW 13 20 7 11 - - 0.0
26/08:30am 19.3 17.2 11.3 60 4.4 WSW 13 20 7 11 - - 0.0
26/08:00am 18.2 16.1 11.3 64 3.8 W 13 17 7 9 - - 0.0
26/07:30am 16.8 14.7 11.3 70 3.0 W 13 19 7 10 - - 0.0
26/07:00am 15.0 13.6 11.0 77 2.1 WSW 9 15 5 8 - - 0.0
26/06:30am 13.2 11.9 10.0 81 1.7 WSW 7 11 4 6 - - 0.0
26/06:00am 11.9 10.5 8.9 82 1.5 SSW 6 9 3 5 - - 0.0
26/05:30am 11.8 11.2 9.0 83 1.4 SW 2 9 1 5 - - 0.0
26/05:00am 11.4 9.0 8.8 84 1.3 W 11 15 6 8 - - 0.0
26/04:30am 11.6 9.6 8.5 81 1.5 W 9 11 5 6 - - 0.0
26/04:00am 12.1 10.1 8.8 80 1.7 W 9 11 5 6 - - 0.0
26/03:30am 12.5 10.6 9.0 79 1.8 W 9 13 5 7 - - 0.0
26/03:00am 13.1 10.5 9.5 79 1.8 W 13 19 7 10 - - 0.0
26/02:30am 12.7 10.1 9.5 81 1.6 W 13 17 7 9 - - 0.0
26/02:00am 12.0 10.0 8.8 81 1.6 W 9 13 5 7 - - 0.0
26/01:30am 11.8 9.3 8.3 79 1.7 WSW 11 13 6 7 - - 0.0
26/01:00am 13.6 11.7 8.9 73 2.4 W 9 13 5 7 - - 0.0
26/12:30am 14.4 12.4 8.8 69 2.8 WSW 9 11 5 6 - - 0.0
26/12:00am 15.8 13.6 9.2 65 3.4 SW 11 17 6 9 - - 0.0
 
Date/Time
EST
Temp
°C
App
Temp
°C
Dew
Point
°C
Rel
Hum
%
Delta-T
°C
Wind Press
QNH
hPa
Press
MSL
hPa
Rain since
9am
mm
Dir  Spd
km/h
Gust
km/h
Spd
kts
Gust
kts
25/11:30pm 16.2 13.7 9.6 65 3.5 SW 13 19 7 10 - - 0.0
25/11:00pm 13.6 11.4 8.0 69 2.8 WSW 9 11 5 6 - - 0.0
25/10:30pm 15.0 13.3 8.3 64 3.4 WSW 7 11 4 6 - - 0.0
25/10:00pm 15.6 13.6 8.6 63 3.6 WSW 9 13 5 7 - - 0.0
25/09:30pm 15.9 13.4 8.2 60 3.9 W 11 15 6 8 - - 0.0
25/09:00pm 16.8 15.6 8.2 57 4.4 W 4 9 2 5 - - 0.0
25/08:30pm 17.4 16.3 8.3 55 4.7 SW 4 9 2 5 - - 0.0
25/08:00pm 19.0 16.2 8.4 50 5.5 W 13 20 7 11 - - 0.0
25/07:30pm 20.3 16.8 8.6 47 6.2 W 17 20 9 11 - - 0.0
25/07:00pm 20.7 17.1 8.4 45 6.5 WSW 17 26 9 14 - - 0.0
25/06:30pm 21.7 17.8 8.6 43 6.9 WSW 19 30 10 16 - - 0.0
25/06:00pm 22.4 18.1 7.0 37 8.0 WSW 19 33 10 18 - - 0.0
25/05:30pm 23.5 19.4 8.8 39 7.9 WSW 20 32 11 17 - - 0.0
25/05:00pm 24.7 19.3 9.4 38 8.4 WSW 28 43 15 23 - - 0.0
25/04:30pm 25.0 19.8 8.9 36 8.7 W 26 44 14 24 - - 0.0
25/04:00pm 25.5 19.8 9.7 37 8.7 WSW 30 48 16 26 - - 0.0
25/03:31pm 25.6 19.3 9.8 37 8.7 WSW 33 52 18 28 - - 0.0
25/03:30pm 25.6 18.8 9.4 36 8.9 WSW 35 52 19 28 - - 0.0
25/03:12pm 26.0 20.7 11.4 40 8.3 WSW 30 48 16 26 - - 0.0
25/03:00pm 26.4 21.0 12.1 41 8.3 WSW 32 44 17 24 - - 0.0
25/02:30pm 26.7 24.2 14.1 46 7.5 WSW 20 39 11 21 - - 0.0
25/02:16pm 26.9 21.9 13.3 43 8.0 W 32 50 17 27 - - 0.0
25/02:00pm 26.4 21.2 11.7 40 8.4 W 30 46 16 25 - - 0.0
25/01:30pm 27.1 21.4 11.2 37 9.1 W 32 50 17 27 - - 0.0
25/01:22pm 27.2 22.5 12.0 38 8.8 W 28 48 15 26 - - 0.0
25/01:00pm 26.5 22.2 13.3 44 7.8 W 28 43 15 23 - - 0.0
25/12:30pm 25.9 21.3 12.4 43 7.8 W 28 41 15 22 - - 0.0
25/12:00pm 26.1 21.3 11.8 41 8.2 W 28 41 15 22 - - 0.0
25/11:30am 26.0 20.8 11.7 41 8.2 W 30 41 16 22 - - 0.0
25/11:25am 26.2 21.8 13.0 44 7.7 W 28 39 15 21 - - 0.0
25/11:00am 23.4 22.9 12.7 51 6.2 E 7 13 4 7 - - 0.0
25/10:30am 21.7 21.6 12.0 54 5.5 N 4 9 2 5 - - 0.0
25/10:00am 20.8 21.6 12.5 59 4.7 CALM 0 2 0 1 - - 0.0
25/09:30am 19.3 19.4 12.8 66 3.7 NNE 4 9 2 5 - - 0.0
25/09:00am 17.3 18.1 12.4 73 2.7 CALM 0 0 0 0 - - 0.0
25/08:30am 16.0 16.6 12.0 77 2.2 CALM 0 0 0 0 - - 0.0
25/08:00am 15.2 15.8 11.8 80 1.8 CALM 0 0 0 0 - - 0.0
25/07:30am 13.2 13.6 11.1 87 1.1 CALM 0 0 0 0 - - 0.0
25/07:00am 12.7 12.3 9.9 83 1.4 NNW 2 9 1 5 - - 0.0
25/06:30am 12.0 10.8 9.7 86 1.2 NNW 6 9 3 5 - - 0.0
25/06:00am 11.5 9.6 9.2 86 1.2 W 9 13 5 7 - - 0.0
25/05:30am 11.0 9.6 8.9 87 1.0 W 6 11 3 6 - - 0.0
25/05:00am 10.7 8.7 8.8 88 0.9 W 9 11 5 6 - - 0.0
25/04:30am 10.2 7.8 8.5 89 0.8 WSW 11 15 6 8 - - 0.0
25/04:00am 9.9 7.4 8.2 89 0.8 W 11 13 6 7 - - 0.0
25/03:30am 10.2 7.7 8.3 88 0.9 W 11 15 6 8 - - 0.0
25/03:00am 10.4 8.0 8.5 88 0.9 W 11 13 6 7 - - 0.0
25/02:30am 10.7 8.3 8.6 87 1.0 W 11 15 6 8 - - 0.0
25/02:00am 10.5 8.4 8.3 86 1.1 W 9 11 5 6 - - 0.0
25/01:30am 10.9 8.4 8.3 84 1.3 WSW 11 13 6 7 - - 0.0
25/01:00am 11.1 9.5 8.8 86 1.1 WSW 7 11 4 6 - - 0.0
25/12:30am 11.0 10.7 8.6 85 1.2 CALM 0 7 0 4 - - 0.0
25/12:00am 11.7 11.1 8.9 83 1.4 W 2 9 1 5 - - 0.0
 
Date/Time
EST
Temp
°C
App
Temp
°C
Dew
Point
°C
Rel
Hum
%
Delta-T
°C
Wind Press
QNH
hPa
Press
MSL
hPa
Rain since
9am
mm
Dir  Spd
km/h
Gust
km/h
Spd
kts
Gust
kts
24/11:30pm 11.7 11.5 9.1 84 1.3 CALM 0 0 0 0 - - 0.0
24/11:00pm 11.5 11.1 8.2 80 1.6 CALM 0 0 0 0 - - 0.0
24/10:30pm 12.6 12.4 8.9 78 1.9 CALM 0 0 0 0 - - 0.0
24/10:00pm 13.3 11.4 9.2 76 2.1 W 9 11 5 6 - - 0.0
24/09:30pm 13.7 12.3 9.6 76 2.1 WSW 7 11 4 6 - - 0.0
24/09:00pm 13.9 13.9 9.7 76 2.2 CALM 0 7 0 4 - - 0.0
24/08:30pm 14.0 11.9 9.6 75 2.3 WSW 11 15 6 8 - - 0.0
24/08:00pm 14.5 14.4 9.3 71 2.7 CALM 0 0 0 0 - - 0.0
24/07:30pm 15.8 15.5 8.5 62 3.7 CALM 0 0 0 0 - - 0.0
24/07:00pm 17.2 17.0 8.9 58 4.3 CALM 0 0 0 0 - - 0.0
24/06:30pm 18.1 17.5 7.5 50 5.4 CALM 0 0 0 0 - - 0.0
24/06:00pm 21.7 20.2 6.8 38 7.6 NW 4 7 2 4 - - 0.0
24/05:30pm 23.6 21.1 8.1 37 8.2 WNW 11 17 6 9 - - 0.0
24/05:00pm 24.9 22.0 8.0 34 9.0 W 13 20 7 11 - - 0.0
24/04:30pm 25.4 22.7 7.5 32 9.5 WSW 11 20 6 11 - - 0.0
24/04:00pm 25.6 22.4 6.7 30 9.9 W 13 24 7 13 - - 0.0
24/03:30pm 26.1 22.8 6.2 28 10.4 WSW 13 20 7 11 - - 0.0
24/03:00pm 25.9 21.4 6.0 28 10.3 W 19 30 10 16 - - 0.0
24/02:30pm 26.0 21.9 8.0 32 9.7 W 19 28 10 15 - - 0.0
24/02:00pm 25.9 21.4 7.0 30 10.0 W 20 28 11 15 - - 0.0
24/01:30pm 26.5 22.4 8.5 32 9.8 W 20 30 11 16 - - 0.0
24/01:00pm 25.7 24.2 10.7 39 8.4 S 9 15 5 8 - - 0.0
24/12:30pm 24.7 23.8 10.6 41 7.9 SW 6 17 3 9 - - 0.0
24/12:00pm 23.6 21.7 9.2 40 7.8 SSW 9 17 5 9 - - 0.0
24/11:30am 23.4 22.6 11.1 46 6.9 SSW 6 17 3 9 - - 0.0
24/11:00am 23.2 22.3 10.6 45 7.0 W 6 11 3 6 - - 0.0
24/10:30am 21.8 19.5 9.0 44 6.8 WNW 11 19 6 10 - - 0.0
24/10:00am 21.3 20.1 11.6 54 5.4 WSW 9 15 5 8 - - 0.0
24/09:30am 20.0 18.2 11.0 56 4.9 WSW 11 17 6 9 - - 0.0
24/09:00am 19.0 17.7 11.1 60 4.3 W 9 15 5 8 - - 0.0
24/08:30am 18.3 16.7 11.6 65 3.7 W 11 15 6 8 - - 0.0
24/08:00am 16.5 15.5 11.0 70 3.0 W 7 13 4 7 - - 0.0
24/07:30am 14.1 12.4 9.9 76 2.2 W 9 11 5 6 - - 0.0
24/07:00am 12.2 12.0 9.2 82 1.5 CALM 0 0 0 0 - - 0.0
24/06:30am 10.0 9.7 8.6 91 0.7 CALM 0 0 0 0 - - 0.0
24/06:00am 8.1 7.3 6.4 89 0.8 CALM 0 0 0 0 - - 0.0
24/05:30am 8.6 7.9 6.9 89 0.8 CALM 0 0 0 0 - - 0.0
24/05:00am 9.3 7.4 7.4 88 0.9 NW 7 11 4 6 - - 0.0
24/04:30am 9.6 7.8 7.9 89 0.8 NW 7 9 4 5 - - 0.0
24/04:00am 10.0 9.5 7.8 86 1.1 CALM 0 6 0 3 - - 0.0
24/03:30am 9.5 7.6 7.4 87 1.0 WSW 7 11 4 6 - - 0.0
24/03:00am 10.2 8.4 8.0 86 1.1 WSW 7 9 4 5 - - 0.0
24/02:30am 10.4 8.1 7.5 82 1.4 W 9 11 5 6 - - 0.0
24/02:00am 11.7 9.2 8.4 80 1.6 W 11 15 6 8 - - 0.0
24/01:30am 12.2 9.8 8.7 79 1.7 WSW 11 19 6 10 - - 0.0
24/01:00am 12.4 9.6 8.7 78 1.9 WSW 13 17 7 9 - - 0.0
24/12:30am 13.0 10.3 8.9 76 2.1 W 13 19 7 10 - - 0.0
24/12:00am 13.3 10.2 9.0 75 2.2 W 15 20 8 11 - - 0.0
 
Date/Time
EST
Temp
°C
App
Temp
°C
Dew
Point
°C
Rel
Hum
%
Delta-T
°C
Wind Press
QNH
hPa
Press
MSL
hPa
Rain since
9am
mm
Dir  Spd
km/h
Gust
km/h
Spd
kts
Gust
kts
23/11:30pm 12.9 10.2 8.8 76 2.1 W 13 17 7 9 - - 0.0
23/11:00pm 13.4 10.7 9.1 75 2.2 W 13 17 7 9 - - 0.0
23/10:30pm 13.9 11.2 8.9 72 2.5 W 13 15 7 8 - - 0.0
23/10:00pm 14.5 11.5 9.1 70 2.8 W 15 20 8 11 - - 0.0
23/09:30pm 14.5 11.9 9.3 71 2.7 WSW 13 17 7 9 - - 0.0
23/09:00pm 14.4 12.2 9.2 71 2.7 WSW 11 19 6 10 - - 0.0
23/08:30pm 14.9 12.6 9.1 68 3.0 WSW 11 15 6 8 - - 0.0
23/08:00pm 15.7 13.5 9.4 66 3.3 WSW 11 17 6 9 - - 0.0
23/07:30pm 15.8 13.6 9.2 65 3.4 W 11 15 6 8 - - 0.0
23/07:00pm 17.0 14.8 9.2 60 4.1 W 11 15 6 8 - - 0.0
23/06:30pm 18.4 15.3 8.9 54 5.0 WSW 15 20 8 11 - - 0.0
23/06:00pm 19.2 15.8 9.1 52 5.3 WSW 17 26 9 14 - - 0.0
23/05:30pm 20.3 17.4 9.5 50 5.8 W 15 20 8 11 - - 0.0
23/05:00pm 21.4 17.6 9.9 48 6.2 W 20 30 11 16 - - 0.0
23/04:30pm 22.2 17.7 10.0 46 6.7 W 24 39 13 21 - - 0.0
23/04:00pm 22.5 18.2 9.3 43 7.1 W 22 30 12 16 - - 0.0
23/03:30pm 22.6 17.8 8.7 41 7.4 W 24 39 13 21 - - 0.0

Other Formats:

Comma delimited format used in spreadsheet applications
http://www.bom.gov.au/fwo/IDQ60801/IDQ60801.94562.axf

JavaScript Object Notation format (JSON) in row-major order
http://www.bom.gov.au/fwo/IDQ60801/IDQ60801.94562.json